createdAt,value
2023-04-05T00:00:41.985Z,20.97
2023-04-05T00:03:28.944Z,20.97
2023-04-05T00:06:16.655Z,20.99
2023-04-05T00:09:03.757Z,20.97
2023-04-05T00:11:49.094Z,20.98
2023-04-05T00:14:34.479Z,20.97
2023-04-05T00:17:19.611Z,20.97
2023-04-05T00:20:08.100Z,20.98
2023-04-05T00:22:53.812Z,20.97
2023-04-05T00:25:39.096Z,20.96
2023-04-05T00:28:24.560Z,20.96
2023-04-05T00:31:09.968Z,20.97
2023-04-05T00:33:55.316Z,20.96
2023-04-05T00:36:40.580Z,20.96
2023-04-05T00:39:25.930Z,20.96
2023-04-05T00:42:11.759Z,20.96
2023-04-05T00:44:57.432Z,20.97
2023-04-05T00:47:43.625Z,20.97
2023-04-05T00:50:30.930Z,20.97
2023-04-05T00:53:19.046Z,20.96
2023-04-05T00:56:04.775Z,20.96
2023-04-05T00:58:52.230Z,20.96
2023-04-05T01:01:40.580Z,20.96
2023-04-05T01:04:28.178Z,20.95
2023-04-05T01:07:28.968Z,20.96
2023-04-05T01:10:17.414Z,20.94
2023-04-05T01:13:03.845Z,20.95
2023-04-05T01:15:49.565Z,20.95
2023-04-05T01:18:36.496Z,20.96
2023-04-05T01:21:40.043Z,20.96
2023-04-05T01:24:46.820Z,20.95
2023-04-05T01:27:58.255Z,20.95
2023-04-05T01:30:51.294Z,20.94
2023-04-05T01:34:02.276Z,20.94
2023-04-05T01:36:54.764Z,20.94
2023-04-05T01:39:41.242Z,20.94
2023-04-05T01:42:27.240Z,20.94
2023-04-05T01:45:12.604Z,20.94
2023-04-05T01:47:58.023Z,20.94
2023-04-05T01:50:43.614Z,20.94
2023-04-05T01:53:29.172Z,20.94
2023-04-05T01:56:14.468Z,20.95
2023-04-05T01:58:59.719Z,20.94
2023-04-05T02:01:44.963Z,20.95
2023-04-05T02:04:30.395Z,20.95
2023-04-05T02:07:15.742Z,20.93
2023-04-05T02:10:01.451Z,20.94
2023-04-05T02:12:46.637Z,20.93
2023-04-05T02:15:33.233Z,20.94
2023-04-05T02:18:22.431Z,20.94
2023-04-05T02:21:10.722Z,20.94
2023-04-05T02:23:56.168Z,20.94
2023-04-05T02:26:41.878Z,20.94
2023-04-05T02:29:27.079Z,20.93
2023-04-05T02:32:12.346Z,20.94
2023-04-05T02:34:58.876Z,20.92
2023-04-05T02:37:44.535Z,20.95
2023-04-05T02:40:29.810Z,20.94
2023-04-05T02:43:15.369Z,20.94
2023-04-05T02:46:00.818Z,20.95
2023-04-05T02:48:46.543Z,20.95
2023-04-05T02:51:34.575Z,20.96
2023-04-05T02:54:23.794Z,20.94
2023-04-05T02:57:16.307Z,20.95
2023-04-05T03:00:13.217Z,20.94
2023-04-05T03:02:59.382Z,20.93
2023-04-05T03:05:47.207Z,20.93
2023-04-05T03:08:33.620Z,20.95
2023-04-05T03:11:21.734Z,20.93
2023-04-05T03:14:12.168Z,20.94
2023-04-05T03:17:03.373Z,20.94
2023-04-05T03:19:54.688Z,20.93
2023-04-05T03:22:43.570Z,20.93
2023-04-05T03:25:30.415Z,20.94
2023-04-05T03:28:18.346Z,20.94
2023-04-05T03:31:08.302Z,20.94
2023-04-05T03:33:53.595Z,20.95
2023-04-05T03:36:42.302Z,20.93
2023-04-05T03:39:38.378Z,20.94
2023-04-05T03:42:24.411Z,20.92
2023-04-05T03:45:10.859Z,20.95
2023-04-05T03:47:57.089Z,20.95
2023-04-05T03:50:42.507Z,20.95
2023-04-05T03:53:29.607Z,20.95
2023-04-05T03:56:15.795Z,20.94
2023-04-05T03:59:04.842Z,20.93
2023-04-05T04:01:51.192Z,20.93
2023-04-05T04:04:38.603Z,20.93
2023-04-05T04:07:24.568Z,20.94
2023-04-05T04:10:12.310Z,20.93
2023-04-05T04:12:57.695Z,20.93
2023-04-05T04:15:47.187Z,20.95
2023-04-05T04:18:43.763Z,21.01
2023-04-05T04:21:51.669Z,21.09
2023-04-05T04:24:37.528Z,21.10
2023-04-05T04:27:50.398Z,21.11
2023-04-05T04:30:56.056Z,21.14
2023-04-05T04:34:02.357Z,21.16
2023-04-05T04:37:03.946Z,21.18
2023-04-05T04:40:18.322Z,21.18
2023-04-05T04:43:42.840Z,21.22
2023-04-05T04:46:46.139Z,21.24
2023-04-05T04:49:34.818Z,21.26
2023-04-05T04:52:20.218Z,21.29
2023-04-05T04:55:09.205Z,21.31
2023-04-05T04:57:55.614Z,21.35
2023-04-05T05:00:45.145Z,21.36
2023-04-05T05:03:30.592Z,21.39
2023-04-05T05:06:22.171Z,21.38
2023-04-05T05:09:07.959Z,21.35
2023-04-05T05:12:02.616Z,21.34
2023-04-05T05:14:48.250Z,21.33
2023-04-05T05:17:34.875Z,21.32
2023-04-05T05:20:21.441Z,21.32
2023-04-05T05:23:06.988Z,21.31
2023-04-05T05:25:58.346Z,21.31
2023-04-05T05:28:44.119Z,21.29
2023-04-05T05:31:29.462Z,21.28
2023-04-05T05:34:14.797Z,21.28
2023-04-05T05:37:06.851Z,21.26
2023-04-05T05:39:54.529Z,21.23
2023-04-05T05:42:40.042Z,21.22
2023-04-05T05:45:25.702Z,21.21
2023-04-05T05:48:14.086Z,21.20
2023-04-05T05:51:06.550Z,21.18
2023-04-05T05:53:51.808Z,21.15
2023-04-05T05:56:37.169Z,21.15
2023-04-05T05:59:22.692Z,21.14
2023-04-05T06:02:08.220Z,21.12
2023-04-05T06:04:55.074Z,21.12
2023-04-05T06:07:40.871Z,21.12
2023-04-05T06:10:26.479Z,21.09
2023-04-05T06:13:12.155Z,21.10
2023-04-05T06:15:57.378Z,21.10
2023-04-05T06:18:43.914Z,21.09
2023-04-05T06:21:29.322Z,21.07
2023-04-05T06:24:14.781Z,21.06
2023-04-05T06:27:00.077Z,21.07
2023-04-05T06:29:45.485Z,21.07
2023-04-05T06:32:30.852Z,21.06
2023-04-05T06:35:17.035Z,21.05
2023-04-05T06:38:02.359Z,21.05
2023-04-05T06:40:48.169Z,21.04
2023-04-05T06:43:33.528Z,21.03
2023-04-05T06:46:19.025Z,21.03
2023-04-05T06:49:04.686Z,21.03
2023-04-05T06:51:50.026Z,21.03
2023-04-05T06:54:39.005Z,21.03
2023-04-05T06:57:24.466Z,21.02
2023-04-05T07:00:13.395Z,21.03
2023-04-05T07:02:58.680Z,21.01
2023-04-05T07:05:53.647Z,21.02
2023-04-05T07:08:39.037Z,21.02
2023-04-05T07:11:24.260Z,21.03
2023-04-05T07:14:09.721Z,21.03
2023-04-05T07:16:54.954Z,21.02
2023-04-05T07:19:40.354Z,21.04
2023-04-05T07:22:25.925Z,21.04
2023-04-05T07:25:11.773Z,21.05
2023-04-05T07:27:57.299Z,21.05
2023-04-05T07:30:42.783Z,21.06
2023-04-05T07:33:28.441Z,21.07
2023-04-05T07:36:13.708Z,21.07
2023-04-05T07:38:59.102Z,21.08
2023-04-05T07:41:46.523Z,21.08
2023-04-05T07:44:31.686Z,21.09
2023-04-05T07:47:17.169Z,21.09
2023-04-05T07:50:03.592Z,21.11
2023-04-05T07:52:52.449Z,21.12
2023-04-05T07:55:38.267Z,21.12
2023-04-05T07:58:23.788Z,21.11
2023-04-05T08:01:10.644Z,21.11
2023-04-05T08:03:59.271Z,21.14
2023-04-05T08:06:45.077Z,21.14
2023-04-05T08:09:30.578Z,21.14
2023-04-05T08:12:16.172Z,21.15
2023-04-05T08:15:01.668Z,21.17
2023-04-05T08:17:47.141Z,21.17
2023-04-05T08:20:32.633Z,21.17
2023-04-05T08:23:18.172Z,21.20
2023-04-05T08:26:04.007Z,21.20
2023-04-05T08:28:49.358Z,21.20
2023-04-05T08:31:34.562Z,21.21
2023-04-05T08:34:21.813Z,21.21
2023-04-05T08:37:07.622Z,21.22
2023-04-05T08:39:52.823Z,21.22
2023-04-05T08:42:45.945Z,21.21
2023-04-05T08:45:34.265Z,21.21
2023-04-05T08:48:20.671Z,21.22
2023-04-05T08:51:06.174Z,21.23
2023-04-05T08:53:53.065Z,21.24
2023-04-05T08:56:38.931Z,21.25
2023-04-05T08:59:24.698Z,21.25
2023-04-05T09:02:19.334Z,21.26
2023-04-05T09:05:09.319Z,21.25
2023-04-05T09:07:58.461Z,21.26
2023-04-05T09:10:44.680Z,21.27
2023-04-05T09:13:31.629Z,21.24
2023-04-05T09:16:17.803Z,21.23
2023-04-05T09:19:03.114Z,21.23
2023-04-05T09:22:01.085Z,21.22
2023-04-05T09:24:47.120Z,21.23
2023-04-05T09:27:36.126Z,21.23
2023-04-05T09:30:22.753Z,21.25
2023-04-05T09:33:10.565Z,21.25
2023-04-05T09:35:56.301Z,21.24
2023-04-05T09:38:45.919Z,21.23
2023-04-05T09:41:31.966Z,21.24
2023-04-05T09:44:17.523Z,21.23
2023-04-05T09:47:16.191Z,21.24
2023-04-05T09:50:06.222Z,21.23
2023-04-05T09:52:52.579Z,21.23
2023-04-05T09:55:38.136Z,21.24
2023-04-05T09:58:23.862Z,21.25
2023-04-05T10:01:16.774Z,21.25
2023-04-05T10:04:03.227Z,21.26
2023-04-05T10:06:49.050Z,21.26
2023-04-05T10:09:35.567Z,21.26
2023-04-05T10:12:28.641Z,21.25
2023-04-05T10:15:14.412Z,21.25
2023-04-05T10:18:13.483Z,21.26
2023-04-05T10:21:01.287Z,21.25
2023-04-05T10:23:53.106Z,21.25
2023-04-05T10:27:07.417Z,21.25
2023-04-05T10:30:05.264Z,21.24
2023-04-05T10:33:12.352Z,21.23
2023-04-05T10:36:06.835Z,21.23
2023-04-05T10:39:05.301Z,21.23
2023-04-05T10:42:00.264Z,21.23
2023-04-05T10:44:51.694Z,21.23
2023-04-05T10:47:45.156Z,21.24
2023-04-05T10:50:32.549Z,21.23
2023-04-05T10:53:20.948Z,21.23
2023-04-05T10:56:07.170Z,21.22
2023-04-05T10:58:54.114Z,21.22
2023-04-05T11:01:41.096Z,21.20
2023-04-05T11:04:26.569Z,21.18
2023-04-05T11:07:16.684Z,21.18
2023-04-05T11:10:05.120Z,21.19
2023-04-05T11:12:53.391Z,21.17
2023-04-05T11:15:39.939Z,21.19
2023-04-05T11:18:25.938Z,21.20
2023-04-05T11:21:11.177Z,21.21
2023-04-05T11:24:12.028Z,21.20
2023-04-05T11:26:57.924Z,21.22
2023-04-05T11:29:49.782Z,21.23
2023-04-05T11:32:39.682Z,21.24
2023-04-05T11:35:25.151Z,21.26
2023-04-05T11:38:10.530Z,21.26
2023-04-05T11:41:17.778Z,21.25
2023-04-05T11:44:05.843Z,21.27
2023-04-05T11:46:54.199Z,21.27
2023-04-05T11:49:40.778Z,21.27
2023-04-05T11:52:26.103Z,21.27
2023-04-05T11:55:11.927Z,21.26
2023-04-05T11:57:57.312Z,21.27
2023-04-05T12:00:43.424Z,21.26
2023-04-05T12:03:30.017Z,21.26
2023-04-05T12:06:15.469Z,21.25
2023-04-05T12:09:00.821Z,21.25
2023-04-05T12:11:46.266Z,21.24
2023-04-05T12:14:32.694Z,21.24
2023-04-05T12:17:17.924Z,21.25
2023-04-05T12:20:04.069Z,21.27
2023-04-05T12:22:51.882Z,21.27
2023-04-05T12:25:39.073Z,21.28
2023-04-05T12:28:26.393Z,21.27
2023-04-05T12:31:12.053Z,21.27
2023-04-05T12:33:59.508Z,21.27
2023-04-05T12:36:46.671Z,21.26
2023-04-05T12:39:33.239Z,21.25
2023-04-05T12:42:18.535Z,21.25
2023-04-05T12:45:12.706Z,21.24
2023-04-05T12:48:00.051Z,21.23
2023-04-05T12:50:52.054Z,21.23
2023-04-05T12:53:46.187Z,21.22
2023-04-05T12:56:32.556Z,21.21
2023-04-05T12:59:18.082Z,21.18
2023-04-05T13:02:03.458Z,21.18
2023-04-05T13:04:48.560Z,21.16
2023-04-05T13:07:36.383Z,21.18
2023-04-05T13:10:34.017Z,21.20
2023-04-05T13:13:23.992Z,21.22
2023-04-05T13:16:10.437Z,21.27
2023-04-05T13:18:57.196Z,21.30
2023-04-05T13:21:43.821Z,21.34
2023-04-05T13:24:29.732Z,21.36
2023-04-05T13:27:16.879Z,21.39
2023-04-05T13:30:04.981Z,21.41
2023-04-05T13:32:50.783Z,21.43
2023-04-05T13:35:36.456Z,21.45
2023-04-05T13:38:21.877Z,21.46
2023-04-05T13:41:07.337Z,21.47
2023-04-05T13:43:52.875Z,21.49
2023-04-05T13:46:38.506Z,21.49
2023-04-05T13:49:24.035Z,21.51
2023-04-05T13:52:09.723Z,21.53
2023-04-05T13:55:01.805Z,21.55
2023-04-05T13:57:49.693Z,21.56
2023-04-05T14:00:34.981Z,21.56
2023-04-05T14:03:20.211Z,21.59
2023-04-05T14:06:05.732Z,21.63
2023-04-05T14:08:55.628Z,21.61
2023-04-05T14:11:42.247Z,21.63
2023-04-05T14:14:29.380Z,21.66
2023-04-05T14:17:15.723Z,21.67
2023-04-05T14:20:01.715Z,21.74
2023-04-05T14:22:48.010Z,21.76
2023-04-05T14:25:33.294Z,21.79
2023-04-05T14:28:18.599Z,21.80
2023-04-05T14:31:04.365Z,21.82
2023-04-05T14:33:49.824Z,21.82
2023-04-05T14:36:36.465Z,21.85
2023-04-05T14:39:22.395Z,21.86
2023-04-05T14:42:07.802Z,21.88
2023-04-05T14:44:53.268Z,21.91
2023-04-05T14:47:38.575Z,21.93
2023-04-05T14:50:24.585Z,21.96
2023-04-05T14:53:10.614Z,21.99
2023-04-05T14:55:56.245Z,22.00
2023-04-05T14:58:41.991Z,22.00
2023-04-05T15:01:28.296Z,22.01
2023-04-05T15:04:14.337Z,22.01
2023-04-05T15:07:00.125Z,22.03
2023-04-05T15:09:45.839Z,22.01
2023-04-05T15:12:34.689Z,22.01
2023-04-05T15:15:20.797Z,22.03
2023-04-05T15:18:08.203Z,22.06
2023-04-05T15:20:53.816Z,22.07
2023-04-05T15:23:39.470Z,22.09
2023-04-05T15:26:25.434Z,22.08
2023-04-05T15:29:11.139Z,22.09
2023-04-05T15:31:57.903Z,22.11
2023-04-05T15:34:43.308Z,22.10
2023-04-05T15:37:28.858Z,22.13
2023-04-05T15:40:14.309Z,22.16
2023-04-05T15:42:59.944Z,22.15
2023-04-05T15:45:45.363Z,22.16
2023-04-05T15:48:31.100Z,22.15
2023-04-05T15:51:17.004Z,22.14
2023-04-05T15:54:03.311Z,22.13
2023-04-05T15:56:49.193Z,22.10
2023-04-05T15:59:34.564Z,22.09
2023-04-05T16:02:20.480Z,22.09
2023-04-05T16:05:06.965Z,22.06
2023-04-05T16:07:52.757Z,22.06
2023-04-05T16:10:38.424Z,22.05
2023-04-05T16:13:24.316Z,22.01
2023-04-05T16:16:29.929Z,22.00
2023-04-05T16:19:20.361Z,22.00
2023-04-05T16:22:06.765Z,22.00
2023-04-05T16:24:52.162Z,22.04
2023-04-05T16:27:38.521Z,22.00
2023-04-05T16:30:24.156Z,21.98
2023-04-05T16:33:10.521Z,21.99
2023-04-05T16:35:56.335Z,21.97
2023-04-05T16:38:43.778Z,21.95
2023-04-05T16:41:30.625Z,21.94
2023-04-05T16:44:16.743Z,21.94
2023-04-05T16:47:02.828Z,21.96
2023-04-05T16:49:48.585Z,21.94
2023-04-05T16:52:34.010Z,21.92
2023-04-05T16:55:20.091Z,21.93
2023-04-05T16:58:06.110Z,21.94
2023-04-05T17:00:55.651Z,21.95
2023-04-05T17:03:42.336Z,21.98
2023-04-05T17:06:28.179Z,22.01
2023-04-05T17:09:13.651Z,22.07
2023-04-05T17:11:59.336Z,22.11
2023-04-05T17:14:44.839Z,22.10
2023-04-05T17:17:30.572Z,22.14
2023-04-05T17:20:16.200Z,22.12
2023-04-05T17:23:01.843Z,22.11
2023-04-05T17:25:47.462Z,22.13
2023-04-05T17:28:33.397Z,22.14
2023-04-05T17:31:19.398Z,22.16
2023-04-05T17:34:04.639Z,22.16
2023-04-05T17:36:49.940Z,22.15
2023-04-05T17:39:35.753Z,22.16
2023-04-05T17:42:21.645Z,22.15
2023-04-05T17:45:08.123Z,22.15
2023-04-05T17:47:54.212Z,22.12
2023-04-05T17:50:39.535Z,22.13
2023-04-05T17:53:25.762Z,22.10
2023-04-05T17:56:11.415Z,22.08
2023-04-05T17:58:59.397Z,22.08
2023-04-05T18:01:51.505Z,22.06
2023-04-05T18:04:40.394Z,22.07
2023-04-05T18:07:27.274Z,22.08
2023-04-05T18:10:13.115Z,22.06
2023-04-05T18:12:58.838Z,22.07
2023-04-05T18:15:44.132Z,22.11
2023-04-05T18:18:29.422Z,22.09
2023-04-05T18:21:14.951Z,22.10
2023-04-05T18:24:00.166Z,22.09
2023-04-05T18:26:45.826Z,22.11
2023-04-05T18:29:33.010Z,22.11
2023-04-05T18:32:18.591Z,22.10
2023-04-05T18:35:04.667Z,22.08
2023-04-05T18:37:50.158Z,22.05
2023-04-05T18:40:35.771Z,22.04
2023-04-05T18:43:20.991Z,22.00
2023-04-05T18:46:06.554Z,21.99
2023-04-05T18:48:55.090Z,21.96
2023-04-05T18:51:40.506Z,21.94
2023-04-05T18:54:26.157Z,21.90
2023-04-05T18:57:11.758Z,21.88
2023-04-05T18:59:57.100Z,21.85
2023-04-05T19:02:42.443Z,21.83
2023-04-05T19:05:27.762Z,21.82
2023-04-05T19:08:14.273Z,21.78
2023-04-05T19:10:59.777Z,21.77
2023-04-05T19:13:46.350Z,21.73
2023-04-05T19:16:32.107Z,21.73
2023-04-05T19:19:18.969Z,21.69
2023-04-05T19:22:04.496Z,21.66
2023-04-05T19:24:49.965Z,21.64
2023-04-05T19:27:35.385Z,21.62
2023-04-05T19:30:21.098Z,21.61
2023-04-05T19:33:06.470Z,21.58
2023-04-05T19:35:52.018Z,21.56
2023-04-05T19:38:39.578Z,21.56
2023-04-05T19:41:25.249Z,21.54
2023-04-05T19:44:12.138Z,21.53
2023-04-05T19:46:57.499Z,21.51
2023-04-05T19:49:42.925Z,21.48
2023-04-05T19:52:31.438Z,21.48
2023-04-05T19:55:34.500Z,21.47
2023-04-05T19:58:27.822Z,21.46
2023-04-05T20:01:32.298Z,21.44
2023-04-05T20:04:20.187Z,21.42
2023-04-05T20:07:08.146Z,21.39
2023-04-05T20:09:54.499Z,21.40
2023-04-05T20:12:39.798Z,21.39
2023-04-05T20:15:38.513Z,21.37
2023-04-05T20:18:25.984Z,21.36
2023-04-05T20:21:12.076Z,21.34
2023-04-05T20:23:58.622Z,21.32
2023-04-05T20:26:44.113Z,21.32
2023-04-05T20:29:32.412Z,21.29
2023-04-05T20:32:18.627Z,21.29
2023-04-05T20:35:08.810Z,21.28
2023-04-05T20:37:54.054Z,21.26
2023-04-05T20:40:39.299Z,21.25
2023-04-05T20:43:24.634Z,21.24
2023-04-05T20:46:10.538Z,21.21
2023-04-05T20:48:57.391Z,21.17
2023-04-05T20:51:43.240Z,21.17
2023-04-05T20:54:29.149Z,21.18
2023-04-05T20:57:14.765Z,21.17
2023-04-05T21:00:02.283Z,21.17
2023-04-05T21:02:48.208Z,21.17
2023-04-05T21:05:33.412Z,21.16
2023-04-05T21:08:18.708Z,21.17
2023-04-05T21:11:04.695Z,21.17
2023-04-05T21:13:50.054Z,21.17
2023-04-05T21:16:35.643Z,21.16
2023-04-05T21:19:21.115Z,21.16
2023-04-05T21:22:06.376Z,21.16
2023-04-05T21:24:51.656Z,21.15
2023-04-05T21:27:36.904Z,21.16
2023-04-05T21:30:22.260Z,21.16
2023-04-05T21:33:07.781Z,21.15
2023-04-05T21:35:53.310Z,21.15
2023-04-05T21:38:38.789Z,21.15
2023-04-05T21:41:23.953Z,21.14
2023-04-05T21:44:09.281Z,21.15
2023-04-05T21:46:54.870Z,21.15
2023-04-05T21:49:41.868Z,21.14
2023-04-05T21:52:27.220Z,21.11
2023-04-05T21:55:12.867Z,21.11
2023-04-05T21:57:58.544Z,21.11
2023-04-05T22:00:43.978Z,21.10
2023-04-05T22:03:29.269Z,21.10
2023-04-05T22:06:14.633Z,21.10
2023-04-05T22:08:59.929Z,21.09
2023-04-05T22:11:46.044Z,21.09
2023-04-05T22:14:31.541Z,21.09
2023-04-05T22:17:18.342Z,21.09
2023-04-05T22:20:04.091Z,21.08
2023-04-05T22:22:49.694Z,21.08
2023-04-05T22:25:34.949Z,21.07
2023-04-05T22:28:21.661Z,21.08
2023-04-05T22:31:07.165Z,21.07
2023-04-05T22:33:52.577Z,21.07
2023-04-05T22:36:37.719Z,21.06
2023-04-05T22:39:23.127Z,21.07
2023-04-05T22:42:08.431Z,21.06
2023-04-05T22:44:53.754Z,21.06
2023-04-05T22:47:39.210Z,21.04
2023-04-05T22:50:24.509Z,21.04
2023-04-05T22:53:10.017Z,21.04
2023-04-05T22:55:55.486Z,21.03
2023-04-05T22:58:41.013Z,21.03
2023-04-05T23:01:26.614Z,21.03
2023-04-05T23:04:12.053Z,21.03
2023-04-05T23:06:57.423Z,21.03
2023-04-05T23:09:42.672Z,21.02
2023-04-05T23:12:28.077Z,21.03
2023-04-05T23:15:14.176Z,21.03
2023-04-05T23:17:59.762Z,21.03
2023-04-05T23:20:45.382Z,21.02
2023-04-05T23:23:31.044Z,21.00
2023-04-05T23:26:16.639Z,21.00
2023-04-05T23:29:02.279Z,21.00
2023-04-05T23:31:48.365Z,21.00
2023-04-05T23:34:33.727Z,20.99
2023-04-05T23:37:19.097Z,21.01
2023-04-05T23:40:05.016Z,21.01
2023-04-05T23:42:51.018Z,21.00
2023-04-05T23:45:36.487Z,21.00
2023-04-05T23:48:21.812Z,21.00
2023-04-05T23:51:07.103Z,20.99
2023-04-05T23:53:52.750Z,21.00
2023-04-05T23:56:38.379Z,21.00
2023-04-05T23:59:23.645Z,21.00
